London Corbin Airport Magee Field
KLOZ : rendu visible

Aérodrome :











RETROUVEZ-NOUS SUR...

 
LOGIN :

S'inscrire | Disclaimer

   EN    FR    IT 

 









Légende :    VFR   VFR Marginal   IFR   IFR Intensif   IFR Très Intensif
Visi : 
Plafond : 
>= 8 km
>= 3000ft
5 à 8 km
1000 à 3000 ft
1500m à 5 km
500 à 1000 ft
800 à 1500m
200 à 500 ft
< 800m
< 200 ft
Symboles :   Orages  Brouillard  Fortes neiges  Fortes précipitations  Vent > 20 kt






- Altitude de l'aérodrome : 1212 ft


KLOZ - London Corbin Magee Field

DERNIER METAR :
  • 182253Z AUTO 02010G16KT 10SM SCT050 18/11 A3016 RMK AO2 SLP203 T01830106

METARs EXPIRÉS :
  • 182153Z AUTO 01011KT 10SM BKN050 19/11 A3014 RMK AO2 SLP199 T01890106
  • 182053Z AUTO 36007KT 10SM FEW050 20/11 A3013 RMK AO2 SLP193 T02000111 55004

TAF KLOZ
Valide du 18 à 18h jusqu'au 19 à 18h UTC


181740Z 1818/1918 36009KT P6SM SCT015 SCT100
FM182200 02008KT P6SM SCT200
FM190100 VRB05KT P6SM FEW200
FIR KZID / Amérique du Nord



MET'MAP, la Météo Aéronautique d'un coup d'oeil ! - Copyright ORBIFLY Décembre 2007 - Disclaimer

ORBIFLY MET'MAP TEAM :

Programmation & Développement : Alexandra Zaïnal
Sur une idée originale de : Baudouin d'Aumeries
Assistance à la programmation : Marc-Olivier Méhu
Soutien technique & logistique : Manuel Goepfert

Contact : metmap@orbifly.com




SOURCES & CREDITS :

   NOAA       Earth
Advisory